Aeroporto :
LOGIN :

Iscrizione | Disclaimer

   EN    FR    IT 

 










Sommario :    VFR   VFR Marginale   IFR   IFR Intensivo   IFR Molto Intensivo
Visibilità : 
Base nubi : 
>= 8 km
>= 3000ft
5 / 8 km
1000 / 3000 ft
1500m / 5 km
500 / 1000 ft
800 / 1500m
200 / 500 ft
< 800m
< 200 ft
Simboli :   Temporali  Nebbia  Neve Forte  Precipitazioni Forti  Vento > 20 kt
SIGMETs :   Varie  Temporali  Ghiacco  Turbolenza  Onda orograficha  Ceneri Vulcaniche






- Altitudine del aeroporto : 374 ft
- Codice IATA : LIS


LPPT - Lisboa Portela

ULTIMO METAR :
  • 070230Z 30006KT 260V330 9999 FEW015 BKN028 17/13 Q1012

METARs OBSOLETI :
  • 070200Z 32005KT 290V350 9999 FEW018 BKN028 17/13 Q1012
  • 070130Z 29005KT 260V320 9999 FEW016 BKN026 17/14 Q1012
  • 070100Z 29004KT 270V330 9999 FEW017 BKN026 17/13 Q1012
  • 070030Z 31006KT 270V340 9999 FEW015 BKN029 17/13 Q1012
  • 070000Z 34006KT 9999 FEW015 BKN036 17/14 Q1012

TAF TAF LPPT
Valido dal 07 a 00 ore il 08 a 06 ore UTC


062300Z 0700/0806 33005KT 9999 FEW015 BKN030
BECMG 0706/0709 33010KT SCT012 BKN025
BECMG 0712/0715 33015KT FEW035
BECMG 0721/0724 33010KT FEW015



MetMap, La meteo Aeronautica in un colpo d'occhio ! - Copyright ORBIFLY Dicembre 2007 - Disclaimer

ORBIFLY MET'MAP TEAM :

Programmazione e sviluppo : Alexandra Zaïnal
Concezione : Baudouin d'Aumeries
Aiuto per la programmazione : Marc-Olivier Méhu
Supporto tecnico e logistico : Manuel Goepfert
Aiuto per la traduzione : Arnaldo La Scala

Contatto : metmap@orbifly.com




FONTI E CREDITI :

   NOAA